sensor_id;sensor_type;location;lat;lon;timestamp;P1;durP1;ratioP1;P2;durP2;ratioP2
69569;SDS011;56781;42.292;23.146;2023-07-24T00:01:23;14.48;;;5.40;;
69569;SDS011;56781;42.292;23.146;2023-07-24T00:03:50;19.98;;;6.95;;
69569;SDS011;56781;42.292;23.146;2023-07-24T00:06:17;17.50;;;6.87;;
69569;SDS011;56781;42.292;23.146;2023-07-24T00:08:44;15.60;;;5.75;;
69569;SDS011;56781;42.292;23.146;2023-07-24T00:11:11;16.95;;;6.13;;
69569;SDS011;56781;42.292;23.146;2023-07-24T00:13:39;18.10;;;6.55;;
69569;SDS011;56781;42.292;23.146;2023-07-24T00:16:07;17.38;;;6.05;;
69569;SDS011;56781;42.292;23.146;2023-07-24T00:18:34;14.97;;;5.80;;
69569;SDS011;56781;42.292;23.146;2023-07-24T00:21:02;16.77;;;6.50;;
69569;SDS011;56781;42.292;23.146;2023-07-24T00:23:29;14.07;;;5.88;;
69569;SDS011;56781;42.292;23.146;2023-07-24T00:25:56;15.95;;;5.65;;
69569;SDS011;56781;42.292;23.146;2023-07-24T00:28:23;15.68;;;6.35;;
69569;SDS011;56781;42.292;23.146;2023-07-24T00:30:50;14.30;;;5.70;;
69569;SDS011;56781;42.292;23.146;2023-07-24T00:33:18;14.80;;;5.32;;
69569;SDS011;56781;42.292;23.146;2023-07-24T00:35:45;15.52;;;5.53;;
69569;SDS011;56781;42.292;23.146;2023-07-24T00:38:12;14.27;;;5.72;;
69569;SDS011;56781;42.292;23.146;2023-07-24T00:40:40;15.27;;;6.10;;
69569;SDS011;56781;42.292;23.146;2023-07-24T00:43:07;17.87;;;6.20;;
69569;SDS011;56781;42.292;23.146;2023-07-24T00:45:34;15.25;;;6.07;;
69569;SDS011;56781;42.292;23.146;2023-07-24T00:48:02;15.15;;;6.00;;
69569;SDS011;56781;42.292;23.146;2023-07-24T00:50:29;15.10;;;5.75;;
69569;SDS011;56781;42.292;23.146;2023-07-24T00:52:57;14.50;;;5.60;;
69569;SDS011;56781;42.292;23.146;2023-07-24T00:55:24;14.03;;;5.70;;
69569;SDS011;56781;42.292;23.146;2023-07-24T00:57:52;16.77;;;5.65;;
69569;SDS011;56781;42.292;23.146;2023-07-24T01:00:20;17.20;;;6.55;;
69569;SDS011;56781;42.292;23.146;2023-07-24T01:02:47;15.40;;;6.13;;
69569;SDS011;56781;42.292;23.146;2023-07-24T01:05:15;16.55;;;6.25;;
69569;SDS011;56781;42.292;23.146;2023-07-24T01:07:43;17.93;;;6.20;;
69569;SDS011;56781;42.292;23.146;2023-07-24T01:10:10;16.23;;;6.45;;
69569;SDS011;56781;42.292;23.146;2023-07-24T01:12:45;15.48;;;5.70;;
69569;SDS011;56781;42.292;23.146;2023-07-24T01:17:50;16.45;;;6.25;;
69569;SDS011;56781;42.292;23.146;2023-07-24T01:20:23;15.93;;;6.17;;
69569;SDS011;56781;42.292;23.146;2023-07-24T01:23:11;16.95;;;6.28;;
69569;SDS011;56781;42.292;23.146;2023-07-24T01:25:55;13.23;;;5.72;;
69569;SDS011;56781;42.292;23.146;2023-07-24T01:28:26;14.00;;;5.68;;
69569;SDS011;56781;42.292;23.146;2023-07-24T01:30:53;19.17;;;6.05;;
69569;SDS011;56781;42.292;23.146;2023-07-24T01:33:21;14.30;;;5.70;;
69569;SDS011;56781;42.292;23.146;2023-07-24T01:35:53;13.68;;;5.68;;
69569;SDS011;56781;42.292;23.146;2023-07-24T01:38:24;14.63;;;6.05;;
69569;SDS011;56781;42.292;23.146;2023-07-24T01:40:54;15.10;;;5.75;;
69569;SDS011;56781;42.292;23.146;2023-07-24T01:43:22;15.27;;;5.85;;
69569;SDS011;56781;42.292;23.146;2023-07-24T01:45:49;17.70;;;6.33;;
69569;SDS011;56781;42.292;23.146;2023-07-24T01:48:17;15.65;;;6.38;;
69569;SDS011;56781;42.292;23.146;2023-07-24T01:50:44;15.25;;;6.43;;
69569;SDS011;56781;42.292;23.146;2023-07-24T01:53:11;13.90;;;5.88;;
69569;SDS011;56781;42.292;23.146;2023-07-24T01:55:38;14.40;;;5.85;;
69569;SDS011;56781;42.292;23.146;2023-07-24T01:58:05;16.30;;;5.97;;
69569;SDS011;56781;42.292;23.146;2023-07-24T02:00:32;17.17;;;6.50;;
69569;SDS011;56781;42.292;23.146;2023-07-24T02:03:00;13.93;;;5.35;;
69569;SDS011;56781;42.292;23.146;2023-07-24T02:05:27;17.92;;;6.75;;
69569;SDS011;56781;42.292;23.146;2023-07-24T02:07:54;18.23;;;6.63;;
69569;SDS011;56781;42.292;23.146;2023-07-24T02:10:21;17.87;;;6.83;;
69569;SDS011;56781;42.292;23.146;2023-07-24T02:12:49;16.75;;;6.13;;
69569;SDS011;56781;42.292;23.146;2023-07-24T02:15:16;17.17;;;6.75;;
69569;SDS011;56781;42.292;23.146;2023-07-24T02:17:43;16.00;;;6.40;;
69569;SDS011;56781;42.292;23.146;2023-07-24T02:20:10;17.30;;;6.65;;
69569;SDS011;56781;42.292;23.146;2023-07-24T02:22:38;16.17;;;6.10;;
69569;SDS011;56781;42.292;23.146;2023-07-24T02:25:05;16.15;;;6.68;;
69569;SDS011;56781;42.292;23.146;2023-07-24T02:27:32;15.77;;;6.15;;
69569;SDS011;56781;42.292;23.146;2023-07-24T02:30:01;23.50;;;7.10;;
69569;SDS011;56781;42.292;23.146;2023-07-24T02:32:29;16.80;;;6.60;;
69569;SDS011;56781;42.292;23.146;2023-07-24T02:34:56;15.67;;;6.23;;
69569;SDS011;56781;42.292;23.146;2023-07-24T02:37:23;17.33;;;6.60;;
69569;SDS011;56781;42.292;23.146;2023-07-24T02:39:54;19.02;;;6.45;;
69569;SDS011;56781;42.292;23.146;2023-07-24T02:42:21;16.00;;;6.00;;
69569;SDS011;56781;42.292;23.146;2023-07-24T02:44:48;18.45;;;6.20;;
69569;SDS011;56781;42.292;23.146;2023-07-24T02:47:15;14.03;;;5.83;;
69569;SDS011;56781;42.292;23.146;2023-07-24T02:49:43;15.55;;;6.38;;
69569;SDS011;56781;42.292;23.146;2023-07-24T02:52:10;15.43;;;6.30;;
69569;SDS011;56781;42.292;23.146;2023-07-24T02:54:37;17.20;;;6.40;;
69569;SDS011;56781;42.292;23.146;2023-07-24T02:57:04;17.65;;;6.07;;
69569;SDS011;56781;42.292;23.146;2023-07-24T02:59:31;16.83;;;6.63;;
69569;SDS011;56781;42.292;23.146;2023-07-24T03:01:59;18.45;;;6.20;;
69569;SDS011;56781;42.292;23.146;2023-07-24T03:04:26;14.20;;;5.65;;
69569;SDS011;56781;42.292;23.146;2023-07-24T03:06:53;15.65;;;5.90;;
69569;SDS011;56781;42.292;23.146;2023-07-24T03:09:20;18.83;;;6.70;;
69569;SDS011;56781;42.292;23.146;2023-07-24T03:11:47;18.23;;;5.73;;
69569;SDS011;56781;42.292;23.146;2023-07-24T03:14:15;14.60;;;5.75;;
69569;SDS011;56781;42.292;23.146;2023-07-24T03:16:42;15.98;;;6.35;;
69569;SDS011;56781;42.292;23.146;2023-07-24T03:19:09;15.43;;;6.63;;
69569;SDS011;56781;42.292;23.146;2023-07-24T03:21:36;17.17;;;6.35;;
69569;SDS011;56781;42.292;23.146;2023-07-24T03:24:04;18.40;;;6.67;;
69569;SDS011;56781;42.292;23.146;2023-07-24T03:26:31;17.20;;;6.43;;
69569;SDS011;56781;42.292;23.146;2023-07-24T03:28:59;18.42;;;6.57;;
69569;SDS011;56781;42.292;23.146;2023-07-24T03:31:26;25.80;;;10.43;;
69569;SDS011;56781;42.292;23.146;2023-07-24T03:33:54;17.48;;;6.38;;
69569;SDS011;56781;42.292;23.146;2023-07-24T03:36:21;16.67;;;6.90;;
69569;SDS011;56781;42.292;23.146;2023-07-24T03:38:50;21.10;;;7.70;;
69569;SDS011;56781;42.292;23.146;2023-07-24T03:41:17;16.25;;;6.00;;
69569;SDS011;56781;42.292;23.146;2023-07-24T03:43:44;18.08;;;6.72;;
69569;SDS011;56781;42.292;23.146;2023-07-24T03:46:11;18.30;;;6.68;;
69569;SDS011;56781;42.292;23.146;2023-07-24T03:48:38;16.53;;;6.03;;
69569;SDS011;56781;42.292;23.146;2023-07-24T03:51:06;17.35;;;6.30;;
69569;SDS011;56781;42.292;23.146;2023-07-24T03:53:33;18.08;;;6.93;;
69569;SDS011;56781;42.292;23.146;2023-07-24T03:56:01;16.05;;;6.30;;
69569;SDS011;56781;42.292;23.146;2023-07-24T03:58:28;16.45;;;6.28;;
69569;SDS011;56781;42.292;23.146;2023-07-24T04:00:55;15.13;;;6.13;;
69569;SDS011;56781;42.292;23.146;2023-07-24T04:03:22;18.08;;;6.40;;
69569;SDS011;56781;42.292;23.146;2023-07-24T04:05:49;16.85;;;6.70;;
69569;SDS011;56781;42.292;23.146;2023-07-24T04:08:17;18.90;;;6.45;;
69569;SDS011;56781;42.292;23.146;2023-07-24T04:10:44;17.92;;;6.63;;
69569;SDS011;56781;42.292;23.146;2023-07-24T04:13:11;17.77;;;6.20;;
69569;SDS011;56781;42.292;23.146;2023-07-24T04:15:38;16.23;;;6.38;;
69569;SDS011;56781;42.292;23.146;2023-07-24T04:18:06;16.42;;;6.25;;
69569;SDS011;56781;42.292;23.146;2023-07-24T04:20:33;14.85;;;6.10;;
69569;SDS011;56781;42.292;23.146;2023-07-24T04:23:00;16.30;;;6.22;;
69569;SDS011;56781;42.292;23.146;2023-07-24T04:25:27;17.10;;;6.77;;
69569;SDS011;56781;42.292;23.146;2023-07-24T04:27:55;19.92;;;7.20;;
69569;SDS011;56781;42.292;23.146;2023-07-24T04:30:22;18.48;;;7.40;;
69569;SDS011;56781;42.292;23.146;2023-07-24T04:32:49;17.13;;;6.90;;
69569;SDS011;56781;42.292;23.146;2023-07-24T04:35:17;18.52;;;6.72;;
69569;SDS011;56781;42.292;23.146;2023-07-24T04:37:44;20.77;;;7.27;;
69569;SDS011;56781;42.292;23.146;2023-07-24T04:40:14;18.88;;;7.00;;
69569;SDS011;56781;42.292;23.146;2023-07-24T04:42:41;21.35;;;7.18;;
69569;SDS011;56781;42.292;23.146;2023-07-24T04:45:09;19.70;;;7.38;;
69569;SDS011;56781;42.292;23.146;2023-07-24T04:47:36;21.60;;;7.63;;
69569;SDS011;56781;42.292;23.146;2023-07-24T04:50:05;17.37;;;6.90;;
69569;SDS011;56781;42.292;23.146;2023-07-24T04:52:32;19.58;;;7.00;;
69569;SDS011;56781;42.292;23.146;2023-07-24T04:54:59;18.38;;;7.40;;
69569;SDS011;56781;42.292;23.146;2023-07-24T04:57:26;16.83;;;7.03;;
69569;SDS011;56781;42.292;23.146;2023-07-24T04:59:54;19.20;;;7.18;;
69569;SDS011;56781;42.292;23.146;2023-07-24T05:02:21;23.43;;;6.93;;
69569;SDS011;56781;42.292;23.146;2023-07-24T05:04:48;19.90;;;7.18;;
69569;SDS011;56781;42.292;23.146;2023-07-24T05:07:16;14.43;;;6.53;;
69569;SDS011;56781;42.292;23.146;2023-07-24T05:09:43;18.83;;;6.72;;
69569;SDS011;56781;42.292;23.146;2023-07-24T05:12:10;18.88;;;7.50;;
69569;SDS011;56781;42.292;23.146;2023-07-24T05:14:38;18.93;;;6.47;;
69569;SDS011;56781;42.292;23.146;2023-07-24T05:17:05;17.92;;;6.93;;
69569;SDS011;56781;42.292;23.146;2023-07-24T05:19:32;16.65;;;7.15;;
69569;SDS011;56781;42.292;23.146;2023-07-24T05:21:59;16.73;;;6.60;;
69569;SDS011;56781;42.292;23.146;2023-07-24T05:24:30;17.90;;;7.18;;
69569;SDS011;56781;42.292;23.146;2023-07-24T05:26:57;18.07;;;6.83;;
69569;SDS011;56781;42.292;23.146;2023-07-24T05:29:24;15.95;;;6.43;;
69569;SDS011;56781;42.292;23.146;2023-07-24T05:31:51;18.00;;;7.30;;
69569;SDS011;56781;42.292;23.146;2023-07-24T05:34:19;17.23;;;7.10;;
69569;SDS011;56781;42.292;23.146;2023-07-24T05:36:46;18.35;;;7.38;;
69569;SDS011;56781;42.292;23.146;2023-07-24T05:39:13;17.80;;;6.80;;
69569;SDS011;56781;42.292;23.146;2023-07-24T05:41:40;18.42;;;6.50;;
69569;SDS011;56781;42.292;23.146;2023-07-24T05:44:07;20.50;;;7.13;;
69569;SDS011;56781;42.292;23.146;2023-07-24T05:46:34;16.17;;;6.70;;
69569;SDS011;56781;42.292;23.146;2023-07-24T05:49:01;21.63;;;7.20;;
69569;SDS011;56781;42.292;23.146;2023-07-24T05:51:29;15.10;;;6.37;;
69569;SDS011;56781;42.292;23.146;2023-07-24T05:53:56;15.70;;;6.70;;
69569;SDS011;56781;42.292;23.146;2023-07-24T05:56:23;17.35;;;7.05;;
69569;SDS011;56781;42.292;23.146;2023-07-24T05:58:50;16.83;;;6.60;;
69569;SDS011;56781;42.292;23.146;2023-07-24T06:01:18;16.88;;;7.22;;
69569;SDS011;56781;42.292;23.146;2023-07-24T06:03:45;18.43;;;7.23;;
69569;SDS011;56781;42.292;23.146;2023-07-24T06:06:12;16.77;;;6.53;;
69569;SDS011;56781;42.292;23.146;2023-07-24T06:08:39;16.17;;;7.07;;
69569;SDS011;56781;42.292;23.146;2023-07-24T06:11:06;17.30;;;7.03;;
69569;SDS011;56781;42.292;23.146;2023-07-24T06:13:33;19.38;;;7.85;;
69569;SDS011;56781;42.292;23.146;2023-07-24T06:16:00;20.20;;;7.87;;
69569;SDS011;56781;42.292;23.146;2023-07-24T06:18:27;26.58;;;8.07;;
69569;SDS011;56781;42.292;23.146;2023-07-24T06:20:54;35.10;;;9.85;;
69569;SDS011;56781;42.292;23.146;2023-07-24T06:23:21;31.35;;;9.23;;
69569;SDS011;56781;42.292;23.146;2023-07-24T06:25:48;33.92;;;8.90;;
69569;SDS011;56781;42.292;23.146;2023-07-24T06:28:15;36.20;;;9.30;;
69569;SDS011;56781;42.292;23.146;2023-07-24T06:30:42;36.50;;;9.85;;
69569;SDS011;56781;42.292;23.146;2023-07-24T06:33:09;39.25;;;10.52;;
69569;SDS011;56781;42.292;23.146;2023-07-24T06:35:36;36.28;;;9.57;;
69569;SDS011;56781;42.292;23.146;2023-07-24T06:38:04;35.63;;;9.90;;
69569;SDS011;56781;42.292;23.146;2023-07-24T06:40:31;32.57;;;8.73;;
69569;SDS011;56781;42.292;23.146;2023-07-24T06:42:58;34.10;;;9.27;;
69569;SDS011;56781;42.292;23.146;2023-07-24T06:45:25;28.10;;;8.15;;
69569;SDS011;56781;42.292;23.146;2023-07-24T06:47:52;26.52;;;8.55;;
69569;SDS011;56781;42.292;23.146;2023-07-24T06:50:19;22.58;;;7.72;;
69569;SDS011;56781;42.292;23.146;2023-07-24T06:52:46;21.37;;;6.93;;
69569;SDS011;56781;42.292;23.146;2023-07-24T06:55:14;17.15;;;7.28;;
69569;SDS011;56781;42.292;23.146;2023-07-24T06:57:41;23.48;;;8.00;;
69569;SDS011;56781;42.292;23.146;2023-07-24T07:00:08;26.45;;;7.90;;
69569;SDS011;56781;42.292;23.146;2023-07-24T07:02:38;18.70;;;8.25;;
69569;SDS011;56781;42.292;23.146;2023-07-24T07:05:06;17.50;;;7.50;;
69569;SDS011;56781;42.292;23.146;2023-07-24T07:07:33;16.08;;;6.97;;
69569;SDS011;56781;42.292;23.146;2023-07-24T07:10:00;14.75;;;7.13;;
69569;SDS011;56781;42.292;23.146;2023-07-24T07:12:28;14.15;;;6.68;;
69569;SDS011;56781;42.292;23.146;2023-07-24T07:14:55;15.18;;;7.10;;
69569;SDS011;56781;42.292;23.146;2023-07-24T07:17:22;16.67;;;6.70;;
69569;SDS011;56781;42.292;23.146;2023-07-24T07:19:49;15.55;;;7.05;;
69569;SDS011;56781;42.292;23.146;2023-07-24T07:22:16;15.75;;;7.15;;
69569;SDS011;56781;42.292;23.146;2023-07-24T07:24:43;16.10;;;7.35;;
69569;SDS011;56781;42.292;23.146;2023-07-24T07:27:10;13.88;;;6.97;;
69569;SDS011;56781;42.292;23.146;2023-07-24T07:29:38;16.10;;;6.80;;
69569;SDS011;56781;42.292;23.146;2023-07-24T07:32:05;15.13;;;6.53;;
69569;SDS011;56781;42.292;23.146;2023-07-24T07:34:33;15.85;;;7.00;;
69569;SDS011;56781;42.292;23.146;2023-07-24T07:37:01;15.25;;;7.18;;
69569;SDS011;56781;42.292;23.146;2023-07-24T07:39:28;14.38;;;6.95;;
69569;SDS011;56781;42.292;23.146;2023-07-24T07:41:55;13.73;;;6.30;;
69569;SDS011;56781;42.292;23.146;2023-07-24T07:44:41;15.27;;;6.93;;
69569;SDS011;56781;42.292;23.146;2023-07-24T07:47:08;15.05;;;7.15;;
69569;SDS011;56781;42.292;23.146;2023-07-24T07:49:35;17.25;;;6.88;;
69569;SDS011;56781;42.292;23.146;2023-07-24T07:52:02;14.93;;;7.40;;
69569;SDS011;56781;42.292;23.146;2023-07-24T07:54:30;18.13;;;7.20;;
69569;SDS011;56781;42.292;23.146;2023-07-24T07:56:57;14.90;;;6.78;;
69569;SDS011;56781;42.292;23.146;2023-07-24T07:59:24;14.40;;;6.88;;
69569;SDS011;56781;42.292;23.146;2023-07-24T08:01:51;19.25;;;7.38;;
69569;SDS011;56781;42.292;23.146;2023-07-24T08:04:19;15.30;;;7.07;;
69569;SDS011;56781;42.292;23.146;2023-07-24T08:06:46;14.83;;;6.93;;
69569;SDS011;56781;42.292;23.146;2023-07-24T08:09:13;16.83;;;7.53;;
69569;SDS011;56781;42.292;23.146;2023-07-24T08:11:40;16.30;;;7.38;;
69569;SDS011;56781;42.292;23.146;2023-07-24T08:14:07;16.25;;;7.20;;
69569;SDS011;56781;42.292;23.146;2023-07-24T08:16:35;16.02;;;7.25;;
69569;SDS011;56781;42.292;23.146;2023-07-24T08:19:02;15.70;;;7.00;;
69569;SDS011;56781;42.292;23.146;2023-07-24T08:21:29;16.52;;;7.13;;
69569;SDS011;56781;42.292;23.146;2023-07-24T08:23:56;14.55;;;6.90;;
69569;SDS011;56781;42.292;23.146;2023-07-24T08:26:24;14.98;;;7.20;;
69569;SDS011;56781;42.292;23.146;2023-07-24T08:28:53;15.90;;;7.07;;
69569;SDS011;56781;42.292;23.146;2023-07-24T08:31:20;15.00;;;7.47;;
69569;SDS011;56781;42.292;23.146;2023-07-24T08:33:48;18.40;;;6.95;;
69569;SDS011;56781;42.292;23.146;2023-07-24T08:36:15;16.17;;;7.55;;
69569;SDS011;56781;42.292;23.146;2023-07-24T08:38:42;13.90;;;6.85;;
69569;SDS011;56781;42.292;23.146;2023-07-24T08:41:10;14.65;;;6.88;;
69569;SDS011;56781;42.292;23.146;2023-07-24T08:43:39;15.70;;;7.33;;
69569;SDS011;56781;42.292;23.146;2023-07-24T08:46:08;17.00;;;6.47;;
69569;SDS011;56781;42.292;23.146;2023-07-24T08:48:37;17.05;;;7.82;;
69569;SDS011;56781;42.292;23.146;2023-07-24T08:51:06;13.05;;;7.25;;
69569;SDS011;56781;42.292;23.146;2023-07-24T08:53:38;15.07;;;7.50;;
69569;SDS011;56781;42.292;23.146;2023-07-24T08:56:08;14.80;;;7.03;;
69569;SDS011;56781;42.292;23.146;2023-07-24T08:58:36;13.75;;;6.97;;
69569;SDS011;56781;42.292;23.146;2023-07-24T09:01:06;13.82;;;7.45;;
69569;SDS011;56781;42.292;23.146;2023-07-24T09:03:34;16.17;;;7.18;;
69569;SDS011;56781;42.292;23.146;2023-07-24T09:06:02;15.13;;;7.35;;
69569;SDS011;56781;42.292;23.146;2023-07-24T09:08:34;12.97;;;6.83;;
69569;SDS011;56781;42.292;23.146;2023-07-24T09:11:06;16.40;;;7.85;;
69569;SDS011;56781;42.292;23.146;2023-07-24T09:13:35;16.52;;;8.02;;
69569;SDS011;56781;42.292;23.146;2023-07-24T09:16:04;14.02;;;7.47;;
69569;SDS011;56781;42.292;23.146;2023-07-24T09:18:42;17.10;;;7.65;;
69569;SDS011;56781;42.292;23.146;2023-07-24T09:21:10;14.93;;;7.23;;
69569;SDS011;56781;42.292;23.146;2023-07-24T09:23:40;16.35;;;7.47;;
69569;SDS011;56781;42.292;23.146;2023-07-24T09:26:10;13.15;;;6.88;;
69569;SDS011;56781;42.292;23.146;2023-07-24T09:28:37;16.20;;;7.43;;
69569;SDS011;56781;42.292;23.146;2023-07-24T09:31:04;14.70;;;7.35;;
69569;SDS011;56781;42.292;23.146;2023-07-24T09:36:06;16.88;;;7.43;;
69569;SDS011;56781;42.292;23.146;2023-07-24T09:38:35;12.63;;;6.47;;
69569;SDS011;56781;42.292;23.146;2023-07-24T09:41:06;13.90;;;7.53;;
69569;SDS011;56781;42.292;23.146;2023-07-24T09:43:34;11.95;;;6.20;;
69569;SDS011;56781;42.292;23.146;2023-07-24T09:46:07;13.70;;;6.37;;
69569;SDS011;56781;42.292;23.146;2023-07-24T09:48:36;13.82;;;7.00;;
69569;SDS011;56781;42.292;23.146;2023-07-24T09:51:08;14.73;;;6.55;;
69569;SDS011;56781;42.292;23.146;2023-07-24T09:53:43;12.40;;;6.05;;
69569;SDS011;56781;42.292;23.146;2023-07-24T09:56:17;13.70;;;6.68;;
69569;SDS011;56781;42.292;23.146;2023-07-24T09:58:57;12.10;;;6.73;;
69569;SDS011;56781;42.292;23.146;2023-07-24T10:01:25;12.35;;;6.10;;
69569;SDS011;56781;42.292;23.146;2023-07-24T10:03:54;13.45;;;6.05;;
69569;SDS011;56781;42.292;23.146;2023-07-24T10:06:22;13.63;;;5.93;;
69569;SDS011;56781;42.292;23.146;2023-07-24T10:08:51;12.18;;;6.32;;
69569;SDS011;56781;42.292;23.146;2023-07-24T10:11:19;12.57;;;6.20;;
69569;SDS011;56781;42.292;23.146;2023-07-24T10:13:48;12.65;;;5.90;;
69569;SDS011;56781;42.292;23.146;2023-07-24T10:16:16;12.63;;;6.10;;
69569;SDS011;56781;42.292;23.146;2023-07-24T10:18:44;11.18;;;5.97;;
69569;SDS011;56781;42.292;23.146;2023-07-24T10:21:13;16.73;;;6.45;;
69569;SDS011;56781;42.292;23.146;2023-07-24T10:23:41;12.50;;;5.73;;
69569;SDS011;56781;42.292;23.146;2023-07-24T10:26:10;13.23;;;5.80;;
69569;SDS011;56781;42.292;23.146;2023-07-24T10:28:38;13.82;;;6.30;;
69569;SDS011;56781;42.292;23.146;2023-07-24T10:31:20;11.80;;;5.53;;
69569;SDS011;56781;42.292;23.146;2023-07-24T10:33:49;12.98;;;5.93;;
69569;SDS011;56781;42.292;23.146;2023-07-24T10:36:17;10.50;;;4.87;;
69569;SDS011;56781;42.292;23.146;2023-07-24T10:38:46;10.02;;;4.55;;
69569;SDS011;56781;42.292;23.146;2023-07-24T10:41:18;10.60;;;4.60;;
69569;SDS011;56781;42.292;23.146;2023-07-24T10:43:49;10.25;;;4.78;;
69569;SDS011;56781;42.292;23.146;2023-07-24T10:46:18;9.93;;;4.85;;
69569;SDS011;56781;42.292;23.146;2023-07-24T10:48:48;10.33;;;5.00;;
69569;SDS011;56781;42.292;23.146;2023-07-24T10:51:16;13.65;;;5.70;;
69569;SDS011;56781;42.292;23.146;2023-07-24T10:53:44;11.98;;;5.03;;
69569;SDS011;56781;42.292;23.146;2023-07-24T10:56:15;13.30;;;4.90;;
69569;SDS011;56781;42.292;23.146;2023-07-24T10:58:43;9.63;;;4.82;;
69569;SDS011;56781;42.292;23.146;2023-07-24T11:01:10;10.73;;;5.40;;
69569;SDS011;56781;42.292;23.146;2023-07-24T11:03:39;12.32;;;5.10;;
69569;SDS011;56781;42.292;23.146;2023-07-24T11:06:14;12.40;;;5.55;;
69569;SDS011;56781;42.292;23.146;2023-07-24T11:08:50;10.05;;;5.30;;
69569;SDS011;56781;42.292;23.146;2023-07-24T11:11:18;11.05;;;5.05;;
69569;SDS011;56781;42.292;23.146;2023-07-24T11:13:45;12.43;;;5.20;;
69569;SDS011;56781;42.292;23.146;2023-07-24T11:16:12;11.70;;;5.05;;
69569;SDS011;56781;42.292;23.146;2023-07-24T11:18:47;11.48;;;5.03;;
69569;SDS011;56781;42.292;23.146;2023-07-24T11:21:20;12.73;;;5.68;;
69569;SDS011;56781;42.292;23.146;2023-07-24T11:23:52;9.82;;;4.88;;
69569;SDS011;56781;42.292;23.146;2023-07-24T11:26:21;9.50;;;4.97;;
69569;SDS011;56781;42.292;23.146;2023-07-24T11:28:50;10.32;;;5.55;;
69569;SDS011;56781;42.292;23.146;2023-07-24T11:31:18;11.77;;;5.60;;
69569;SDS011;56781;42.292;23.146;2023-07-24T11:33:48;9.63;;;5.40;;
69569;SDS011;56781;42.292;23.146;2023-07-24T11:36:16;10.77;;;5.75;;
69569;SDS011;56781;42.292;23.146;2023-07-24T11:38:47;15.37;;;5.97;;
69569;SDS011;56781;42.292;23.146;2023-07-24T11:41:15;10.20;;;5.13;;
69569;SDS011;56781;42.292;23.146;2023-07-24T11:43:48;10.55;;;5.60;;
69569;SDS011;56781;42.292;23.146;2023-07-24T11:46:23;9.73;;;5.40;;
69569;SDS011;56781;42.292;23.146;2023-07-24T11:48:51;12.77;;;5.88;;
69569;SDS011;56781;42.292;23.146;2023-07-24T11:51:20;11.33;;;5.53;;
69569;SDS011;56781;42.292;23.146;2023-07-24T11:53:47;9.60;;;5.43;;
69569;SDS011;56781;42.292;23.146;2023-07-24T11:56:15;11.07;;;6.00;;
69569;SDS011;56781;42.292;23.146;2023-07-24T11:58:46;9.65;;;5.47;;
69569;SDS011;56781;42.292;23.146;2023-07-24T12:01:13;11.70;;;5.85;;
69569;SDS011;56781;42.292;23.146;2023-07-24T12:03:41;11.73;;;6.23;;
69569;SDS011;56781;42.292;23.146;2023-07-24T12:06:16;14.35;;;6.35;;
69569;SDS011;56781;42.292;23.146;2023-07-24T12:08:44;11.27;;;5.57;;
69569;SDS011;56781;42.292;23.146;2023-07-24T12:11:17;10.38;;;5.82;;
69569;SDS011;56781;42.292;23.146;2023-07-24T12:13:47;11.38;;;6.15;;
69569;SDS011;56781;42.292;23.146;2023-07-24T12:16:16;11.23;;;5.80;;
69569;SDS011;56781;42.292;23.146;2023-07-24T12:18:44;11.68;;;5.60;;
69569;SDS011;56781;42.292;23.146;2023-07-24T12:21:11;11.82;;;6.13;;
69569;SDS011;56781;42.292;23.146;2023-07-24T12:23:38;9.30;;;5.55;;
69569;SDS011;56781;42.292;23.146;2023-07-24T12:26:05;11.40;;;5.40;;
69569;SDS011;56781;42.292;23.146;2023-07-24T12:28:33;10.57;;;5.23;;
69569;SDS011;56781;42.292;23.146;2023-07-24T12:31:00;11.63;;;5.78;;
69569;SDS011;56781;42.292;23.146;2023-07-24T12:33:29;12.10;;;5.93;;
69569;SDS011;56781;42.292;23.146;2023-07-24T12:35:56;10.38;;;5.60;;
69569;SDS011;56781;42.292;23.146;2023-07-24T12:38:23;14.35;;;6.05;;
69569;SDS011;56781;42.292;23.146;2023-07-24T12:40:50;11.07;;;5.50;;
69569;SDS011;56781;42.292;23.146;2023-07-24T12:43:17;10.70;;;5.65;;
69569;SDS011;56781;42.292;23.146;2023-07-24T12:45:44;10.73;;;6.07;;
69569;SDS011;56781;42.292;23.146;2023-07-24T12:48:11;11.20;;;5.38;;
69569;SDS011;56781;42.292;23.146;2023-07-24T12:50:38;11.50;;;5.72;;
69569;SDS011;56781;42.292;23.146;2023-07-24T12:53:05;12.37;;;5.37;;
69569;SDS011;56781;42.292;23.146;2023-07-24T12:55:38;11.63;;;5.35;;
69569;SDS011;56781;42.292;23.146;2023-07-24T12:58:05;11.82;;;5.93;;
69569;SDS011;56781;42.292;23.146;2023-07-24T13:00:32;11.35;;;5.60;;
69569;SDS011;56781;42.292;23.146;2023-07-24T13:02:59;9.32;;;5.28;;
69569;SDS011;56781;42.292;23.146;2023-07-24T13:05:27;13.40;;;5.77;;
69569;SDS011;56781;42.292;23.146;2023-07-24T13:07:54;11.25;;;5.47;;
69569;SDS011;56781;42.292;23.146;2023-07-24T13:10:21;12.20;;;5.78;;
69569;SDS011;56781;42.292;23.146;2023-07-24T13:12:48;10.23;;;5.43;;
69569;SDS011;56781;42.292;23.146;2023-07-24T13:15:15;9.48;;;5.25;;
69569;SDS011;56781;42.292;23.146;2023-07-24T13:17:42;10.40;;;4.60;;
69569;SDS011;56781;42.292;23.146;2023-07-24T13:20:10;11.65;;;5.50;;
69569;SDS011;56781;42.292;23.146;2023-07-24T13:22:37;11.45;;;5.30;;
69569;SDS011;56781;42.292;23.146;2023-07-24T13:25:05;10.68;;;5.57;;
69569;SDS011;56781;42.292;23.146;2023-07-24T13:27:33;10.77;;;5.55;;
69569;SDS011;56781;42.292;23.146;2023-07-24T13:30:00;10.30;;;5.13;;
69569;SDS011;56781;42.292;23.146;2023-07-24T13:32:27;10.63;;;5.07;;
69569;SDS011;56781;42.292;23.146;2023-07-24T13:34:56;11.52;;;5.43;;
69569;SDS011;56781;42.292;23.146;2023-07-24T13:37:23;9.38;;;5.50;;
69569;SDS011;56781;42.292;23.146;2023-07-24T13:39:51;14.45;;;5.43;;
69569;SDS011;56781;42.292;23.146;2023-07-24T13:42:18;10.57;;;5.30;;
69569;SDS011;56781;42.292;23.146;2023-07-24T13:44:45;10.90;;;5.28;;
69569;SDS011;56781;42.292;23.146;2023-07-24T13:47:12;9.90;;;5.22;;
69569;SDS011;56781;42.292;23.146;2023-07-24T13:49:39;12.82;;;6.35;;
69569;SDS011;56781;42.292;23.146;2023-07-24T13:52:06;9.63;;;5.28;;
69569;SDS011;56781;42.292;23.146;2023-07-24T13:54:34;9.33;;;4.90;;
69569;SDS011;56781;42.292;23.146;2023-07-24T13:57:01;9.75;;;5.13;;
69569;SDS011;56781;42.292;23.146;2023-07-24T13:59:28;9.93;;;5.50;;
69569;SDS011;56781;42.292;23.146;2023-07-24T14:01:55;9.55;;;4.63;;
69569;SDS011;56781;42.292;23.146;2023-07-24T14:04:22;10.27;;;4.78;;
69569;SDS011;56781;42.292;23.146;2023-07-24T14:06:50;8.63;;;4.77;;
69569;SDS011;56781;42.292;23.146;2023-07-24T14:09:17;9.95;;;4.90;;
69569;SDS011;56781;42.292;23.146;2023-07-24T14:11:44;8.10;;;4.80;;
69569;SDS011;56781;42.292;23.146;2023-07-24T14:14:11;9.30;;;4.95;;
69569;SDS011;56781;42.292;23.146;2023-07-24T14:16:38;11.65;;;5.68;;
69569;SDS011;56781;42.292;23.146;2023-07-24T14:19:08;10.17;;;4.70;;
69569;SDS011;56781;42.292;23.146;2023-07-24T14:21:35;9.18;;;5.18;;
69569;SDS011;56781;42.292;23.146;2023-07-24T14:24:02;10.23;;;5.10;;
69569;SDS011;56781;42.292;23.146;2023-07-24T14:26:30;9.27;;;4.82;;
69569;SDS011;56781;42.292;23.146;2023-07-24T14:28:57;10.35;;;4.80;;
69569;SDS011;56781;42.292;23.146;2023-07-24T14:31:24;11.10;;;5.17;;
69569;SDS011;56781;42.292;23.146;2023-07-24T14:33:51;9.13;;;4.60;;